createdAt,value
2019-03-13T00:01:15.790Z,1.70
2019-03-13T00:06:31.579Z,1.80
2019-03-13T00:11:46.941Z,2.00
2019-03-13T00:17:02.699Z,1.50
2019-03-13T00:23:00.925Z,1.50
2019-03-13T00:28:17.273Z,1.50
2019-03-13T00:33:33.386Z,1.40
2019-03-13T00:38:49.402Z,1.10
2019-03-13T00:44:05.866Z,1.33
2019-03-13T00:49:22.198Z,1.27
2019-03-13T00:54:37.790Z,1.27
2019-03-13T00:59:53.394Z,1.13
2019-03-13T01:05:33.877Z,0.90
2019-03-13T01:10:49.990Z,0.63
2019-03-13T01:16:07.705Z,0.80
2019-03-13T01:21:24.052Z,0.63
2019-03-13T01:26:40.191Z,0.60
2019-03-13T01:32:26.835Z,0.50
2019-03-13T01:37:42.614Z,0.57
2019-03-13T01:42:58.573Z,0.50
2019-03-13T01:48:14.561Z,0.50
2019-03-13T01:53:30.332Z,0.40
2019-03-13T01:58:46.329Z,0.53
2019-03-13T02:04:01.882Z,0.50
2019-03-13T02:09:18.003Z,0.60
2019-03-13T02:14:33.997Z,0.60
2019-03-13T02:19:50.022Z,0.60
2019-03-13T02:25:06.398Z,0.60
2019-03-13T02:30:23.217Z,0.60
2019-03-13T02:35:38.950Z,0.70
2019-03-13T02:40:54.619Z,0.77
2019-03-13T02:46:13.471Z,0.60
2019-03-13T02:51:29.616Z,0.60
2019-03-13T02:56:46.969Z,0.70
2019-03-13T03:02:30.367Z,0.60
2019-03-13T03:07:46.564Z,0.60
2019-03-13T03:13:02.062Z,0.60
2019-03-13T03:18:17.914Z,0.50
2019-03-13T03:23:33.735Z,0.50
2019-03-13T03:28:49.637Z,0.60
2019-03-13T03:34:06.349Z,0.70
2019-03-13T03:39:22.249Z,0.50
2019-03-13T03:44:38.169Z,0.83
2019-03-13T03:49:55.095Z,0.70
2019-03-13T03:55:11.167Z,0.80
2019-03-13T04:00:26.857Z,0.63
2019-03-13T04:05:42.926Z,0.60
2019-03-13T04:10:58.513Z,0.60
2019-03-13T04:16:14.095Z,0.57
2019-03-13T04:21:30.111Z,0.70
2019-03-13T04:26:47.035Z,0.60
2019-03-13T04:32:03.035Z,0.70
2019-03-13T04:37:18.731Z,0.70
2019-03-13T04:42:34.590Z,0.70
2019-03-13T04:47:50.130Z,0.73
2019-03-13T04:53:06.030Z,0.70
2019-03-13T04:58:21.879Z,0.90
2019-03-13T05:03:37.611Z,0.70
2019-03-13T05:09:17.685Z,0.70
2019-03-13T05:14:33.503Z,0.80
2019-03-13T05:19:49.002Z,0.90
2019-03-13T05:25:05.112Z,0.83
2019-03-13T05:30:20.754Z,0.70
2019-03-13T05:35:36.434Z,0.80
2019-03-13T05:40:51.962Z,0.80
2019-03-13T05:46:07.780Z,0.93
2019-03-13T05:51:23.393Z,0.97
2019-03-13T05:56:40.862Z,1.10
2019-03-13T06:01:56.530Z,0.80
2019-03-13T06:07:12.073Z,1.00
2019-03-13T06:12:27.681Z,1.20
2019-03-13T06:17:43.291Z,1.03
2019-03-13T06:22:58.850Z,1.00
2019-03-13T06:28:14.570Z,1.33
2019-03-13T06:33:30.658Z,1.10
2019-03-13T06:38:46.467Z,1.13
2019-03-13T06:44:02.190Z,1.17
2019-03-13T06:49:17.635Z,0.90
2019-03-13T06:54:33.579Z,1.00
2019-03-13T07:00:06.976Z,1.00
2019-03-13T07:05:40.485Z,1.00
2019-03-13T07:11:17.810Z,1.23
2019-03-13T07:16:52.559Z,1.30
2019-03-13T07:22:14.553Z,0.90
2019-03-13T07:27:53.951Z,0.80
2019-03-13T07:33:21.155Z,0.97
2019-03-13T07:39:01.408Z,0.80
2019-03-13T07:44:38.512Z,0.90
2019-03-13T07:50:16.537Z,1.17
2019-03-13T07:55:53.913Z,1.20
2019-03-13T08:01:40.487Z,1.10
2019-03-13T08:07:08.481Z,1.20
2019-03-13T08:12:58.134Z,1.07
2019-03-13T08:18:35.248Z,1.07
2019-03-13T08:24:12.525Z,0.90
2019-03-13T08:29:56.554Z,0.93
2019-03-13T08:35:33.383Z,1.13
2019-03-13T08:41:10.688Z,1.03
2019-03-13T08:46:46.400Z,1.17
2019-03-13T08:52:26.387Z,1.10
2019-03-13T08:57:49.839Z,1.60
2019-03-13T09:03:24.876Z,0.97
2019-03-13T09:08:57.930Z,1.00
2019-03-13T09:14:38.524Z,1.10
2019-03-13T09:20:08.950Z,1.10
2019-03-13T09:26:01.656Z,1.00
2019-03-13T09:31:36.328Z,1.10
2019-03-13T09:37:16.816Z,1.40
2019-03-13T09:42:52.892Z,0.93
2019-03-13T09:48:45.987Z,1.00
2019-03-13T09:54:38.411Z,1.40
2019-03-13T10:00:12.715Z,0.83
2019-03-13T10:05:39.899Z,1.03
2019-03-13T10:11:20.579Z,1.10
2019-03-13T10:16:53.585Z,1.03
2019-03-13T10:22:30.959Z,0.80
2019-03-13T10:28:03.931Z,1.00
2019-03-13T10:33:36.919Z,0.90
2019-03-13T10:39:17.350Z,1.10
2019-03-13T10:44:50.830Z,1.10
2019-03-13T10:50:13.138Z,0.90
2019-03-13T10:55:46.540Z,1.23
2019-03-13T11:01:14.135Z,1.10
2019-03-13T11:06:55.244Z,1.07
2019-03-13T11:12:27.747Z,0.73
2019-03-13T11:17:57.887Z,1.30
2019-03-13T12:42:51.337Z,0.90
2019-03-13T12:48:26.179Z,1.20
2019-03-13T12:54:04.500Z,1.50
2019-03-13T12:59:39.108Z,1.30
2019-03-13T13:05:23.288Z,1.37
2019-03-13T13:11:13.573Z,1.17
2019-03-13T13:16:40.458Z,1.20
2019-03-13T13:21:56.261Z,1.20
2019-03-13T13:27:36.974Z,1.43
2019-03-13T13:32:52.938Z,3.40
2019-03-13T13:38:10.340Z,1.07
2019-03-13T13:43:26.981Z,1.67
2019-03-13T13:48:44.206Z,1.40
2019-03-13T13:54:04.826Z,1.47
2019-03-13T13:59:20.487Z,1.23
2019-03-13T14:04:38.676Z,1.10
2019-03-13T14:10:05.204Z,1.70
2019-03-13T14:15:24.598Z,1.70
2019-03-13T14:20:40.541Z,1.50
2019-03-13T14:26:43.054Z,1.23
2019-03-13T14:31:59.795Z,1.37
2019-03-13T14:37:15.671Z,1.50
2019-03-13T14:42:32.850Z,1.40
2019-03-13T14:47:48.878Z,1.37
2019-03-13T14:53:04.827Z,1.20
2019-03-13T14:58:20.632Z,1.10
2019-03-13T15:03:36.497Z,1.37
2019-03-13T15:08:52.341Z,1.70
2019-03-13T15:14:07.794Z,1.30
2019-03-13T15:19:24.004Z,0.97
2019-03-13T15:24:40.638Z,1.30
2019-03-13T15:29:56.658Z,1.23
2019-03-13T15:35:12.505Z,1.40
2019-03-13T15:40:32.767Z,1.20
2019-03-13T15:45:51.381Z,1.60
2019-03-13T15:51:07.274Z,1.27
2019-03-13T15:56:23.067Z,1.53
2019-03-13T16:01:38.745Z,1.33
2019-03-13T16:06:55.270Z,1.60
2019-03-13T16:12:10.975Z,1.20
2019-03-13T16:17:28.852Z,1.23
2019-03-13T16:22:47.475Z,1.80
2019-03-13T16:28:03.410Z,1.40
2019-03-13T16:33:19.989Z,1.40
2019-03-13T16:38:37.574Z,1.60
2019-03-13T16:43:53.631Z,1.57
2019-03-13T16:49:09.618Z,1.70
2019-03-13T16:54:25.972Z,1.53
2019-03-13T16:59:45.441Z,1.50
2019-03-13T17:05:01.550Z,1.80
2019-03-13T17:10:20.172Z,1.33
2019-03-13T17:15:36.162Z,1.60
2019-03-13T17:20:52.523Z,1.60
2019-03-13T17:26:10.871Z,2.00
2019-03-13T17:31:27.702Z,1.60
2019-03-13T17:36:46.736Z,1.80
2019-03-13T17:42:02.853Z,1.60
2019-03-13T17:47:18.665Z,1.90
2019-03-13T17:52:34.523Z,1.63
2019-03-13T17:57:50.730Z,1.73
2019-03-13T18:03:09.396Z,1.50
2019-03-13T18:08:25.661Z,1.57
2019-03-13T18:13:44.409Z,1.67
2019-03-13T18:19:03.279Z,1.50
2019-03-13T18:24:18.797Z,1.53
2019-03-13T18:29:37.121Z,1.50
2019-03-13T18:34:53.081Z,1.57
2019-03-13T18:40:09.602Z,1.90
2019-03-13T18:45:28.431Z,1.70
2019-03-13T18:50:44.219Z,1.40
2019-03-13T19:01:29.180Z,1.33
2019-03-13T19:06:48.303Z,1.37
2019-03-13T19:12:04.452Z,1.27
2019-03-13T19:17:20.410Z,1.13
2019-03-13T19:22:39.940Z,1.30
2019-03-13T19:27:56.186Z,1.70
2019-03-13T19:33:12.234Z,1.60
2019-03-13T19:38:28.526Z,1.10
2019-03-13T19:43:44.575Z,1.20
2019-03-13T19:49:00.492Z,1.17
2019-03-13T19:54:17.972Z,1.43
2019-03-13T19:59:36.839Z,1.10
2019-03-13T20:04:52.517Z,1.30
2019-03-13T20:10:12.680Z,1.40
2019-03-13T20:15:28.933Z,0.90
2019-03-13T20:20:45.344Z,1.30
2019-03-13T20:26:06.397Z,1.30
2019-03-13T20:31:22.570Z,1.13
2019-03-13T20:36:43.918Z,1.23
2019-03-13T20:41:59.472Z,1.10
2019-03-13T20:47:15.399Z,1.20
2019-03-13T20:52:31.436Z,1.40
2019-03-13T20:57:47.319Z,1.57
2019-03-13T21:03:03.418Z,1.40
2019-03-13T21:08:19.644Z,1.77
2019-03-13T21:13:35.407Z,1.57
2019-03-13T21:18:51.264Z,1.83
2019-03-13T21:24:14.889Z,1.50
2019-03-13T21:29:33.572Z,1.50
2019-03-13T21:34:49.682Z,1.60
2019-03-13T21:40:11.061Z,1.60
2019-03-13T21:45:58.146Z,1.77
2019-03-13T21:59:15.725Z,1.60
2019-03-13T22:21:26.916Z,2.53
2019-03-13T22:33:39.478Z,2.10
2019-03-13T22:39:39.802Z,2.00
2019-03-13T22:44:57.492Z,1.80
2019-03-13T22:50:28.984Z,2.30
2019-03-13T22:55:57.637Z,2.20
2019-03-13T23:06:57.694Z,2.63
2019-03-13T23:12:18.291Z,2.43
2019-03-13T23:17:37.442Z,2.63
2019-03-13T23:29:43.110Z,2.00
2019-03-13T23:35:30.616Z,2.63
2019-03-13T23:40:52.415Z,2.33
2019-03-13T23:46:10.070Z,2.20
2019-03-13T23:51:30.655Z,1.90
2019-03-13T23:56:48.261Z,1.50
